createdAt,value
2022-12-19T00:00:31.750Z,62.87
2022-12-19T00:03:00.225Z,54.50
2022-12-19T00:05:28.527Z,55.27
2022-12-19T00:07:57.170Z,54.70
2022-12-19T00:10:27.110Z,59.47
2022-12-19T00:12:55.359Z,45.90
2022-12-19T00:15:24.890Z,61.67
2022-12-19T00:17:53.040Z,73.63
2022-12-19T00:20:21.219Z,74.40
2022-12-19T00:22:49.812Z,64.23
2022-12-19T00:25:19.309Z,67.97
2022-12-19T00:27:48.713Z,68.57
2022-12-19T00:30:16.959Z,78.77
2022-12-19T00:32:47.674Z,85.77
2022-12-19T00:35:15.937Z,88.00
2022-12-19T00:37:49.215Z,63.80
2022-12-19T00:40:18.082Z,75.23
2022-12-19T00:42:51.654Z,58.73
2022-12-19T00:45:21.973Z,61.53
2022-12-19T00:47:51.524Z,73.17
2022-12-19T00:50:19.736Z,86.97
2022-12-19T00:52:47.912Z,69.30
2022-12-19T00:55:18.536Z,87.63
2022-12-19T00:57:47.781Z,68.83
2022-12-19T01:00:17.246Z,73.83
2022-12-19T01:02:45.585Z,74.00
2022-12-19T01:05:15.219Z,75.63
2022-12-19T01:07:43.491Z,70.60
2022-12-19T01:10:12.238Z,63.90
2022-12-19T01:12:48.612Z,53.53
2022-12-19T01:15:18.384Z,41.80
2022-12-19T01:17:46.573Z,49.57
2022-12-19T01:20:20.204Z,47.40
2022-12-19T01:22:58.556Z,43.77
2022-12-19T01:25:28.326Z,41.00
2022-12-19T01:27:56.710Z,41.30
2022-12-19T01:30:24.905Z,39.53
2022-12-19T01:32:54.334Z,37.37
2022-12-19T01:35:23.924Z,41.60
2022-12-19T01:37:52.407Z,35.00
2022-12-19T01:40:30.787Z,40.10
2022-12-19T01:42:59.026Z,39.47
2022-12-19T01:45:34.563Z,30.23
2022-12-19T01:48:05.834Z,36.77
2022-12-19T01:50:38.105Z,36.87
2022-12-19T01:53:10.979Z,37.27
2022-12-19T01:55:41.166Z,32.83
2022-12-19T01:58:09.832Z,31.37
2022-12-19T02:00:38.077Z,32.20
2022-12-19T02:03:09.394Z,30.53
2022-12-19T02:05:42.624Z,28.63
2022-12-19T02:08:11.452Z,28.97
2022-12-19T02:10:39.745Z,32.10
2022-12-19T02:13:08.166Z,34.43
2022-12-19T02:15:40.426Z,30.77
2022-12-19T02:18:13.251Z,33.87
2022-12-19T02:21:00.560Z,35.40
2022-12-19T02:23:52.573Z,36.77
2022-12-19T02:26:37.753Z,35.43
2022-12-19T02:29:31.906Z,32.17
2022-12-19T02:32:06.449Z,38.80
2022-12-19T02:34:41.322Z,30.67
2022-12-19T02:37:13.598Z,50.50
2022-12-19T02:39:44.735Z,47.33
2022-12-19T02:42:14.866Z,51.97
2022-12-19T02:44:49.301Z,54.57
2022-12-19T02:47:19.206Z,51.67
2022-12-19T02:49:47.436Z,51.90
2022-12-19T02:52:35.654Z,48.37
2022-12-19T02:55:07.994Z,51.40
2022-12-19T02:57:40.739Z,42.07
2022-12-19T03:00:10.442Z,43.87
2022-12-19T03:02:45.440Z,50.27
2022-12-19T03:05:26.670Z,39.23
2022-12-19T03:07:58.187Z,48.87
2022-12-19T03:10:33.440Z,49.03
2022-12-19T03:13:04.510Z,50.13
2022-12-19T03:15:33.818Z,47.80
2022-12-19T03:18:03.796Z,60.43
2022-12-19T03:20:37.808Z,49.87
2022-12-19T03:23:06.089Z,60.90
2022-12-19T03:25:35.686Z,47.83
2022-12-19T03:28:08.859Z,59.90
2022-12-19T03:30:37.585Z,51.83
2022-12-19T03:33:07.851Z,48.60
2022-12-19T03:35:36.916Z,65.20
2022-12-19T03:38:06.654Z,50.17
2022-12-19T03:40:36.337Z,64.40
2022-12-19T03:43:11.996Z,52.63
2022-12-19T03:45:50.443Z,53.03
2022-12-19T03:48:23.013Z,53.80
2022-12-19T03:50:56.095Z,52.20
2022-12-19T03:53:28.479Z,69.07
2022-12-19T03:55:59.770Z,52.03
2022-12-19T03:58:30.226Z,62.50
2022-12-19T04:00:59.250Z,58.77
2022-12-19T04:03:29.201Z,62.43
2022-12-19T04:05:57.820Z,45.40
2022-12-19T04:08:26.137Z,57.03
2022-12-19T04:10:56.678Z,53.60
2022-12-19T04:13:27.288Z,53.83
2022-12-19T04:16:00.302Z,49.70
2022-12-19T04:18:29.964Z,58.33
2022-12-19T04:21:00.610Z,47.90
2022-12-19T04:23:30.532Z,48.80
2022-12-19T04:26:01.733Z,58.27
2022-12-19T04:28:33.364Z,53.67
2022-12-19T04:31:02.239Z,45.77
2022-12-19T04:33:31.825Z,39.53
2022-12-19T04:36:00.117Z,42.17
2022-12-19T04:38:28.611Z,33.13
2022-12-19T04:40:56.909Z,48.57
2022-12-19T04:43:25.143Z,40.97
2022-12-19T04:45:57.246Z,37.43
2022-12-19T04:48:26.041Z,52.40
2022-12-19T04:50:55.665Z,52.63
2022-12-19T04:53:23.911Z,59.37
2022-12-19T04:55:52.171Z,50.80
2022-12-19T04:58:22.042Z,43.57
2022-12-19T05:00:50.787Z,62.17
2022-12-19T05:03:19.033Z,44.37
2022-12-19T05:05:47.300Z,62.80
2022-12-19T05:08:16.908Z,49.70
2022-12-19T05:10:45.198Z,53.30
2022-12-19T05:13:13.897Z,55.27
2022-12-19T05:15:42.682Z,59.00
2022-12-19T05:18:11.094Z,56.70
2022-12-19T05:20:39.332Z,45.00
2022-12-19T05:23:13.399Z,46.40
2022-12-19T05:25:46.657Z,46.00
2022-12-19T05:28:15.644Z,45.57
2022-12-19T05:30:46.678Z,56.33
2022-12-19T05:33:19.769Z,46.80
2022-12-19T05:35:50.291Z,41.50
2022-12-19T05:38:18.485Z,40.93
2022-12-19T05:40:48.009Z,42.50
2022-12-19T05:43:16.238Z,42.53
2022-12-19T05:45:44.473Z,43.03
2022-12-19T05:48:13.394Z,47.80
2022-12-19T05:50:41.684Z,54.17
2022-12-19T05:53:10.561Z,52.57
2022-12-19T05:55:38.867Z,50.20
2022-12-19T05:58:08.437Z,53.03
2022-12-19T06:00:37.007Z,50.63
2022-12-19T06:03:05.419Z,52.57
2022-12-19T06:05:33.768Z,43.17
2022-12-19T06:08:01.946Z,44.73
2022-12-19T06:10:30.104Z,49.43
2022-12-19T06:12:58.382Z,47.57
2022-12-19T06:15:27.971Z,42.83
2022-12-19T06:17:56.351Z,61.20
2022-12-19T06:20:24.727Z,41.90
2022-12-19T06:22:52.959Z,46.57
2022-12-19T06:25:21.197Z,47.47
2022-12-19T06:27:49.395Z,59.33
2022-12-19T06:30:17.627Z,45.30
2022-12-19T06:32:47.386Z,50.77
2022-12-19T06:35:15.742Z,51.00
2022-12-19T06:37:43.985Z,49.70
2022-12-19T06:40:33.841Z,54.30
2022-12-19T06:43:01.045Z,61.20
2022-12-19T06:45:29.266Z,67.10
2022-12-19T06:47:59.036Z,72.07
2022-12-19T06:50:28.069Z,71.53
2022-12-19T06:52:56.346Z,64.23
2022-12-19T06:55:24.519Z,73.97
2022-12-19T06:57:52.857Z,75.07
2022-12-19T07:00:21.800Z,79.27
2022-12-19T07:02:52.495Z,63.67
2022-12-19T07:05:22.244Z,85.90
2022-12-19T07:07:50.756Z,75.27
2022-12-19T07:10:19.121Z,81.83
2022-12-19T07:12:47.396Z,77.37
2022-12-19T07:15:15.795Z,87.47
2022-12-19T07:17:43.998Z,82.63
2022-12-19T07:20:12.809Z,85.10
2022-12-19T07:22:43.036Z,92.33
2022-12-19T07:25:11.810Z,86.90
2022-12-19T07:27:41.073Z,78.07
2022-12-19T07:30:09.977Z,84.63
2022-12-19T07:32:39.168Z,86.50
2022-12-19T07:35:08.012Z,80.07
2022-12-19T07:37:36.198Z,71.37
2022-12-19T07:40:06.439Z,72.80
2022-12-19T07:42:35.193Z,65.13
2022-12-19T07:45:03.415Z,78.50
2022-12-19T07:47:31.723Z,77.20
2022-12-19T07:49:59.995Z,67.33
2022-12-19T07:52:28.290Z,72.27
2022-12-19T07:54:56.528Z,67.97
2022-12-19T07:57:26.129Z,72.10
2022-12-19T07:59:54.365Z,69.57
2022-12-19T08:02:23.146Z,70.00
2022-12-19T08:04:52.056Z,59.83
2022-12-19T08:07:20.724Z,64.50
2022-12-19T08:09:48.941Z,65.97
2022-12-19T08:12:17.612Z,68.30
2022-12-19T08:14:47.282Z,66.73
2022-12-19T08:17:22.746Z,71.83
2022-12-19T08:19:50.991Z,63.43
2022-12-19T08:22:19.234Z,49.77
2022-12-19T08:24:47.421Z,68.03
2022-12-19T08:27:17.091Z,64.43
2022-12-19T08:29:47.515Z,67.73
2022-12-19T08:32:20.738Z,54.67
2022-12-19T08:34:49.882Z,63.93
2022-12-19T08:37:18.204Z,69.17
2022-12-19T08:39:46.475Z,67.60
2022-12-19T08:42:14.762Z,65.70
2022-12-19T08:44:43.073Z,53.83
2022-12-19T08:47:12.638Z,61.90
2022-12-19T08:49:40.925Z,41.60
2022-12-19T08:52:09.574Z,53.83
2022-12-19T08:54:37.905Z,58.00
2022-12-19T08:57:06.336Z,46.37
2022-12-19T08:59:34.553Z,61.17
2022-12-19T09:02:03.503Z,58.40
2022-12-19T09:06:02.336Z,55.73
2022-12-19T09:07:24.799Z,53.87
2022-12-19T09:09:53.861Z,49.13
2022-12-19T09:12:22.156Z,53.53
2022-12-19T09:14:50.674Z,53.30
2022-12-19T09:17:18.908Z,53.43
2022-12-19T09:19:48.583Z,44.60
2022-12-19T09:22:17.504Z,39.27
2022-12-19T09:24:45.790Z,36.47
2022-12-19T09:27:14.731Z,45.97
2022-12-19T09:29:43.676Z,40.90
2022-12-19T09:32:12.289Z,37.13
2022-12-19T09:34:40.505Z,37.17
2022-12-19T09:37:16.178Z,36.90
2022-12-19T09:39:46.262Z,38.13
2022-12-19T09:42:40.741Z,25.87
2022-12-19T09:45:18.865Z,39.83
2022-12-19T09:47:59.052Z,33.87
2022-12-19T09:50:37.724Z,26.53
2022-12-19T09:53:09.494Z,25.27
2022-12-19T09:55:39.748Z,23.23
2022-12-19T09:58:10.000Z,24.80
2022-12-19T10:00:40.928Z,21.83
2022-12-19T10:03:16.163Z,18.93
2022-12-19T10:05:58.418Z,22.87
2022-12-19T10:08:45.672Z,22.10
2022-12-19T10:12:42.764Z,22.07
2022-12-19T10:14:30.991Z,20.20
2022-12-19T10:20:01.921Z,23.20
2022-12-19T10:22:35.316Z,24.27
2022-12-19T10:25:20.286Z,23.93
2022-12-19T10:27:58.856Z,20.70
2022-12-19T10:30:31.397Z,22.67
2022-12-19T10:33:04.164Z,25.73
2022-12-19T10:35:34.777Z,19.90
2022-12-19T10:38:10.642Z,20.77
2022-12-19T10:40:42.078Z,17.97
2022-12-19T10:43:19.177Z,24.10
2022-12-19T10:45:56.072Z,14.10
2022-12-19T10:48:30.367Z,16.33
2022-12-19T10:51:05.094Z,13.80
2022-12-19T10:53:35.441Z,12.60
2022-12-19T10:56:13.572Z,13.13
2022-12-19T10:58:44.112Z,13.60
2022-12-19T11:01:14.208Z,11.87
2022-12-19T11:03:52.460Z,10.43
2022-12-19T11:06:41.483Z,9.77
2022-12-19T11:09:27.596Z,11.27
2022-12-19T11:16:09.521Z,8.27
2022-12-19T11:19:30.224Z,13.20
2022-12-19T11:26:00.431Z,12.37
2022-12-19T11:29:26.637Z,9.70
2022-12-19T11:29:27.251Z,8.53
2022-12-19T11:29:34.562Z,12.37
2022-12-19T11:30:38.374Z,10.27
2022-12-19T11:34:36.031Z,7.53
2022-12-19T11:37:12.032Z,7.37
2022-12-19T11:39:44.641Z,7.00
2022-12-19T11:42:16.834Z,8.20
2022-12-19T11:44:50.271Z,6.87
2022-12-19T11:47:22.489Z,7.93
2022-12-19T11:49:53.326Z,6.60
2022-12-19T11:55:18.807Z,6.20
2022-12-19T11:57:47.515Z,7.60
2022-12-19T12:00:18.520Z,6.10
2022-12-19T12:02:59.237Z,6.10
2022-12-19T12:05:37.151Z,5.77
2022-12-19T12:10:12.778Z,6.53
2022-12-19T12:18:19.109Z,5.50
2022-12-19T12:24:27.313Z,7.57
2022-12-19T12:30:21.609Z,7.67
2022-12-19T12:31:28.857Z,7.27
2022-12-19T12:31:40.619Z,6.87
2022-12-19T12:31:44.253Z,6.67
2022-12-19T12:32:02.060Z,5.83
2022-12-19T12:35:34.974Z,11.70
2022-12-19T12:40:36.430Z,7.70
2022-12-19T12:43:11.064Z,7.37
2022-12-19T12:45:40.486Z,6.60
2022-12-19T12:48:16.110Z,5.67
2022-12-19T12:50:47.491Z,4.57
2022-12-19T12:53:22.782Z,6.90
2022-12-19T12:55:51.941Z,5.03
2022-12-19T12:58:39.149Z,6.43
2022-12-19T13:01:11.622Z,5.47
2022-12-19T13:03:42.161Z,5.50
2022-12-19T13:06:23.020Z,6.83
2022-12-19T13:08:53.849Z,4.30
2022-12-19T13:11:55.061Z,9.93
2022-12-19T13:14:41.786Z,5.80
2022-12-19T13:17:10.656Z,7.93
2022-12-19T13:19:39.794Z,6.73
2022-12-19T13:22:22.267Z,8.10
2022-12-19T13:24:53.002Z,6.20
2022-12-19T13:27:34.146Z,6.83
2022-12-19T13:30:21.518Z,6.13
2022-12-19T13:33:15.480Z,4.90
2022-12-19T13:39:21.924Z,5.00
2022-12-19T13:39:55.756Z,4.70
2022-12-19T13:41:57.728Z,7.97
2022-12-19T13:44:25.951Z,6.40
2022-12-19T13:46:56.908Z,6.50
2022-12-19T13:49:27.536Z,8.77
2022-12-19T13:51:58.806Z,6.10
2022-12-19T13:54:28.437Z,5.70
2022-12-19T13:57:06.562Z,5.27
2022-12-19T13:59:40.135Z,7.13
2022-12-19T14:02:09.154Z,5.40
2022-12-19T14:04:37.536Z,5.90
2022-12-19T14:07:07.224Z,5.53
2022-12-19T14:11:27.716Z,4.50
2022-12-19T14:13:52.941Z,6.17
2022-12-19T14:15:37.003Z,4.20
2022-12-19T14:18:43.573Z,6.77
2022-12-19T14:22:05.975Z,8.33
2022-12-19T14:24:12.615Z,6.33
2022-12-19T14:28:17.440Z,5.50
2022-12-19T14:30:26.491Z,8.27
2022-12-19T14:33:40.172Z,8.13
2022-12-19T14:36:07.225Z,9.20
2022-12-19T14:39:20.516Z,8.30
2022-12-19T14:41:07.562Z,5.47
2022-12-19T14:43:56.775Z,5.30
2022-12-19T14:54:02.604Z,8.93
2022-12-19T14:54:04.969Z,6.70
2022-12-19T14:54:40.344Z,6.47
2022-12-19T14:56:14.158Z,5.97
2022-12-19T14:58:54.201Z,3.93
2022-12-19T15:01:23.293Z,8.70
2022-12-19T15:04:48.023Z,4.60
2022-12-19T15:07:08.331Z,4.67
2022-12-19T15:11:07.923Z,6.30
2022-12-19T15:13:47.239Z,5.00
2022-12-19T15:15:40.964Z,5.17
2022-12-19T15:18:19.661Z,4.77
2022-12-19T15:20:49.391Z,6.73
2022-12-19T15:23:21.986Z,5.33
2022-12-19T15:26:07.636Z,6.87
2022-12-19T15:28:38.990Z,5.83
2022-12-19T15:31:08.644Z,4.20
2022-12-19T15:33:44.074Z,5.37
2022-12-19T15:36:26.384Z,4.47
2022-12-19T15:38:54.571Z,4.17
2022-12-19T15:41:23.952Z,3.70
2022-12-19T15:44:03.646Z,4.80
2022-12-19T15:46:33.112Z,5.20
2022-12-19T15:49:01.354Z,4.50
2022-12-19T15:51:31.106Z,5.83
2022-12-19T15:54:15.649Z,4.97
2022-12-19T15:56:50.166Z,5.80
2022-12-19T15:59:24.172Z,5.87
2022-12-19T16:01:52.828Z,3.80
2022-12-19T16:04:22.081Z,6.30
2022-12-19T16:06:51.893Z,6.63
2022-12-19T16:09:21.833Z,7.40
2022-12-19T16:11:50.488Z,8.00
2022-12-19T16:14:19.722Z,6.00
2022-12-19T16:16:50.614Z,9.53
2022-12-19T16:19:26.079Z,8.30
2022-12-19T16:21:56.324Z,9.40
2022-12-19T16:24:25.001Z,5.60
2022-12-19T16:26:55.756Z,8.87
2022-12-19T16:29:25.254Z,6.87
2022-12-19T16:31:53.714Z,7.07
2022-12-19T16:34:23.132Z,6.73
2022-12-19T16:36:51.984Z,6.77
2022-12-19T16:39:21.902Z,4.50
2022-12-19T16:41:50.169Z,7.80
2022-12-19T16:44:19.889Z,7.00
2022-12-19T16:46:51.405Z,5.13
2022-12-19T16:49:22.813Z,4.80
2022-12-19T16:51:51.439Z,5.03
2022-12-19T16:54:20.070Z,3.60
2022-12-19T16:56:50.565Z,6.47
2022-12-19T16:59:20.250Z,4.87
2022-12-19T17:01:49.673Z,4.40
2022-12-19T17:04:19.135Z,4.57
2022-12-19T17:06:47.516Z,5.50
2022-12-19T17:09:16.673Z,5.13
2022-12-19T17:11:46.734Z,5.90
2022-12-19T17:14:18.326Z,5.70
2022-12-19T17:16:46.624Z,3.70
2022-12-19T17:19:21.492Z,5.83
2022-12-19T17:21:50.078Z,7.57
2022-12-19T17:24:18.637Z,5.30
2022-12-19T17:26:54.956Z,8.03
2022-12-19T17:29:24.511Z,4.97
2022-12-19T17:31:52.779Z,6.67
2022-12-19T17:34:24.179Z,4.07
2022-12-19T17:36:52.428Z,4.57
2022-12-19T17:39:22.252Z,4.03
2022-12-19T17:41:51.320Z,5.37
2022-12-19T17:44:20.005Z,4.93
2022-12-19T17:46:49.911Z,4.33
2022-12-19T17:49:19.116Z,7.20
2022-12-19T17:51:48.607Z,6.70
2022-12-19T17:54:16.919Z,9.73
2022-12-19T17:56:45.237Z,6.47
2022-12-19T17:59:13.512Z,4.30
2022-12-19T18:01:42.271Z,3.83
2022-12-19T18:04:15.645Z,5.77
2022-12-19T18:06:43.954Z,6.83
2022-12-19T18:09:18.715Z,5.83
2022-12-19T18:11:46.976Z,4.83
2022-12-19T18:14:15.283Z,5.97
2022-12-19T18:16:44.310Z,5.00
2022-12-19T18:19:18.805Z,6.23
2022-12-19T18:21:47.091Z,6.77
2022-12-19T18:24:16.330Z,9.73
2022-12-19T18:26:44.809Z,6.07
2022-12-19T18:29:13.090Z,6.30
2022-12-19T18:31:49.814Z,5.33
2022-12-19T18:34:20.801Z,5.63
2022-12-19T18:36:49.231Z,5.63
2022-12-19T18:39:20.662Z,4.47
2022-12-19T18:41:50.019Z,5.43
2022-12-19T18:44:18.967Z,5.33
2022-12-19T18:46:47.484Z,3.93
2022-12-19T18:49:16.768Z,6.20
2022-12-19T18:51:46.554Z,5.67
2022-12-19T18:54:15.621Z,4.63
2022-12-19T18:56:43.903Z,4.80
2022-12-19T18:59:12.128Z,4.53
2022-12-19T19:01:42.521Z,7.70
2022-12-19T19:04:13.231Z,5.80
2022-12-19T19:06:48.542Z,5.10
2022-12-19T19:09:24.060Z,4.57
2022-12-19T19:11:52.276Z,4.10
2022-12-19T19:14:23.257Z,5.60
2022-12-19T19:16:52.467Z,4.30
2022-12-19T19:19:20.893Z,5.10
2022-12-19T19:21:49.131Z,4.60
2022-12-19T19:24:18.501Z,4.53
2022-12-19T19:26:48.334Z,7.57
2022-12-19T19:29:19.085Z,4.90
2022-12-19T19:31:48.386Z,5.63
2022-12-19T19:34:18.418Z,6.33
2022-12-19T19:36:49.498Z,10.73
2022-12-19T19:39:19.697Z,7.30
2022-12-19T19:41:49.287Z,6.43
2022-12-19T19:44:17.547Z,6.00
2022-12-19T19:46:46.147Z,5.90
2022-12-19T19:49:14.439Z,4.87
2022-12-19T19:51:43.152Z,4.20
2022-12-19T19:54:11.392Z,4.73
2022-12-19T19:56:39.623Z,4.87
2022-12-19T19:59:09.216Z,6.00
2022-12-19T20:01:37.674Z,5.90
2022-12-19T20:04:06.244Z,9.40
2022-12-19T20:06:34.939Z,5.67
2022-12-19T20:09:03.154Z,8.97
2022-12-19T20:11:32.001Z,4.60
2022-12-19T20:14:00.305Z,4.90
2022-12-19T20:16:29.975Z,7.97
2022-12-19T20:18:58.198Z,3.83
2022-12-19T20:21:26.463Z,5.00
2022-12-19T20:23:54.856Z,4.27
2022-12-19T20:26:23.231Z,5.93
2022-12-19T20:28:52.125Z,5.67
2022-12-19T20:31:20.740Z,4.40
2022-12-19T20:33:50.440Z,4.07
2022-12-19T20:36:19.130Z,5.13
2022-12-19T20:38:47.831Z,5.03
2022-12-19T20:41:16.187Z,4.77
2022-12-19T20:43:44.848Z,7.43
2022-12-19T20:46:14.430Z,7.40
2022-12-19T20:48:43.076Z,4.50
2022-12-19T20:51:13.888Z,6.70
2022-12-19T20:53:42.754Z,5.93
2022-12-19T20:56:12.913Z,3.83
2022-12-19T20:58:41.230Z,5.80
2022-12-19T21:01:10.411Z,4.80
2022-12-19T21:03:39.434Z,4.43
2022-12-19T21:06:08.861Z,7.50
2022-12-19T21:08:38.624Z,4.17
2022-12-19T21:11:07.760Z,5.63
2022-12-19T21:13:36.076Z,5.40
2022-12-19T21:16:07.046Z,6.20
2022-12-19T21:18:35.703Z,5.70
2022-12-19T21:21:05.127Z,3.87
2022-12-19T21:23:33.586Z,4.43
2022-12-19T21:26:04.222Z,4.23
2022-12-19T21:28:33.009Z,5.80
2022-12-19T21:31:02.443Z,5.43
2022-12-19T21:33:30.712Z,4.00
2022-12-19T21:36:06.251Z,4.70
2022-12-19T21:38:34.482Z,4.50
2022-12-19T21:41:05.593Z,3.93
2022-12-19T21:43:34.465Z,4.27
2022-12-19T21:46:06.333Z,5.93
2022-12-19T21:48:36.675Z,4.60
2022-12-19T21:51:04.908Z,6.33
2022-12-19T21:53:33.160Z,4.13
2022-12-19T21:56:07.519Z,3.30
2022-12-19T21:58:36.094Z,3.40
2022-12-19T22:01:08.628Z,3.37
2022-12-19T22:03:37.458Z,4.37
2022-12-19T22:06:08.812Z,5.67
2022-12-19T22:08:37.399Z,3.83
2022-12-19T22:11:12.037Z,3.47
2022-12-19T22:13:40.240Z,5.43
2022-12-19T22:16:08.833Z,3.83
2022-12-19T22:18:37.234Z,5.10
2022-12-19T22:21:05.676Z,3.60
2022-12-19T22:23:34.235Z,5.47
2022-12-19T22:26:03.609Z,4.30
2022-12-19T22:28:34.238Z,4.27
2022-12-19T22:31:02.597Z,3.50
2022-12-19T22:33:31.126Z,5.27
2022-12-19T22:35:59.369Z,4.17
2022-12-19T22:38:27.567Z,4.73
2022-12-19T22:40:55.762Z,5.30
2022-12-19T22:43:23.997Z,3.87
2022-12-19T22:45:53.871Z,3.57
2022-12-19T22:48:22.090Z,4.33
2022-12-19T22:50:50.258Z,3.17
2022-12-19T22:53:18.519Z,3.80
2022-12-19T22:55:46.760Z,3.87
2022-12-19T22:58:14.948Z,7.03
2022-12-19T23:00:43.895Z,4.50
2022-12-19T23:03:13.649Z,3.40
2022-12-19T23:05:44.493Z,3.53
2022-12-19T23:08:16.685Z,6.20
2022-12-19T23:10:44.902Z,4.40
2022-12-19T23:13:13.207Z,4.57
2022-12-19T23:15:41.467Z,3.53
2022-12-19T23:18:09.761Z,3.40
2022-12-19T23:20:39.378Z,5.10
2022-12-19T23:23:07.594Z,4.90
2022-12-19T23:25:39.666Z,6.80
2022-12-19T23:28:08.980Z,4.70
2022-12-19T23:30:37.353Z,3.60
2022-12-19T23:33:05.899Z,4.10
2022-12-19T23:35:34.381Z,6.30
2022-12-19T23:38:04.393Z,3.70
2022-12-19T23:40:32.569Z,4.00
2022-12-19T23:43:01.181Z,3.00
2022-12-19T23:45:29.489Z,5.83
2022-12-19T23:47:57.796Z,5.43
2022-12-19T23:50:26.018Z,2.70
2022-12-19T23:52:54.615Z,4.03
2022-12-19T23:55:24.188Z,4.07
2022-12-19T23:57:52.414Z,5.53
